Enterprise — WYB2848 — position and weather

sailwx.info

Track history (hours):
 
Tides and Currents Weather Stations Pressure Air Temp Water Temp Dewpoint Dewpoint Depression Visibility Wind Speed Wind Dir Waves Ship Positions

Enterprise

Owner: SEAL BEACH ANGLERS, INC, LONG BEACH, CA. More information available from US FCC via Universal Licensing System and Coast Guard Vessel Documentation Center.

Last reported at 2018-Jul-15 23:21 UTC. Time now 2018-Jul-16 00:35 UTC.
Position N 33°46' W 118°12'.

Type: Ship. MMSI: 367095040.

Date/timePositionNaut miles runAvg speedWind from/ knotsBaromVisibWave heightAir tempDewpointWater temp
2018-Jul-15 23:21N 33°46' W 118°12'0 0.4
2018-Jul-15 23:00N 33°46' W 118°12'4 7.1
2018-Jul-15 22:30N 33°42' W 118°11'3 5.7
2018-Jul-15 22:00N 33°39' W 118°12'1 2.9
2018-Jul-15 21:30N 33°40' W 118°14'0 0.1
2018-Jul-15 21:01N 33°40' W 118°14'0 0.0
2018-Jul-15 20:31N 33°40' W 118°14'1 1.9
2018-Jul-15 20:01N 33°41' W 118°13'0 0.0
2018-Jul-15 19:30N 33°41' W 118°13'1 2.3
2018-Jul-15 19:00N 33°40' W 118°13'1 1.2
2018-Jul-15 18:31N 33°39' W 118°12'4 7.2
2018-Jul-15 18:00N 33°36' W 118°11'0 0.0
2018-Jul-15 17:31N 33°36' W 118°11'0 0.0
2018-Jul-15 17:00N 33°36' W 118°11'0 0.0
2018-Jul-15 16:30N 33°36' W 118°11'0 0.0
2018-Jul-15 16:01N 33°36' W 118°11'0 0.0
2018-Jul-15 15:30N 33°36' W 118°11'0 0.0
2018-Jul-15 15:01N 33°36' W 118°11'3 6.6
2018-Jul-15 14:30N 33°39' W 118°10'4 8.8
2018-Jul-15 14:00N 33°43' W 118°08'2 3.4
2018-Jul-15 13:31N 33°44' W 118°10'2 4.5
2018-Jul-15 13:00N 33°46' W 118°12'0 0.0
2018-Jul-14 23:32N 33°46' W 118°12'0 0.0
2018-Jul-14 23:30N 33°46' W 118°12'0 0.0
2018-Jul-14 23:00N 33°46' W 118°12'3 5.3
2018-Jul-14 22:30N 33°43' W 118°11'4 8.2
2018-Jul-14 22:00N 33°39' W 118°12'2 3.1
2018-Jul-14 21:30N 33°40' W 118°14'0 0.0
2018-Jul-14 21:00N 33°40' W 118°14'0 0.0
2018-Jul-14 20:30N 33°40' W 118°14'0 0.0
2018-Jul-14 20:00N 33°40' W 118°14'0 0.0
2018-Jul-14 19:30N 33°40' W 118°14'3 5.6
2018-Jul-14 18:59N 33°37' W 118°13'1 2.2
2018-Jul-14 18:30N 33°36' W 118°13'1 0.5
2018-Jul-14 16:23N 33°36' W 118°11'0 0.0
2018-Jul-14 16:00N 33°36' W 118°11'0 0.0
2018-Jul-14 15:30N 33°36' W 118°11'0 0.0
2018-Jul-14 15:00N 33°36' W 118°11'3 5.0
2018-Jul-14 14:30N 33°38' W 118°12'6 5.6
2018-Jul-14 13:30N 33°44' W 118°11'2 4.6
2018-Jul-14 13:00N 33°46' W 118°12'0 0.0
2018-Jul-13 22:37N 33°46' W 118°12'0 2.2
2018-Jul-13 22:30N 33°46' W 118°12'3 6.0
2018-Jul-13 22:00N 33°43' W 118°11'3 6.5
2018-Jul-13 21:30N 33°40' W 118°13'1 1.2
2018-Jul-13 21:00N 33°40' W 118°14'0 0.0
2018-Jul-13 20:30N 33°40' W 118°14'0 0.0
2018-Jul-13 20:00N 33°40' W 118°14'0 0.0
2018-Jul-13 19:30N 33°40' W 118°14'0 0.0
2018-Jul-13 18:58N 33°40' W 118°14'0 0.0
2018-Jul-13 18:31N 33°40' W 118°14'2 4.1
2018-Jul-13 18:00N 33°38' W 118°13'2 3.9
2018-Jul-13 17:30N 33°36' W 118°13'0 0.0
2018-Jul-13 17:01N 33°36' W 118°13'0 0.0
2018-Jul-13 16:31N 33°36' W 118°13'0 0.0
2018-Jul-13 16:01N 33°36' W 118°13'0 0.0
2018-Jul-13 15:30N 33°36' W 118°13'2 3.4
2018-Jul-13 15:00N 33°37' W 118°12'5 5.2
2018-Jul-13 13:59N 33°43' W 118°12'1 1.5
2018-Jul-13 13:30N 33°43' W 118°11'2 0.2
2018-Jul-12 23:26N 33°46' W 118°12'2 4.7
2018-Jul-12 23:01N 33°44' W 118°11'4 7.4
2018-Jul-12 22:31N 33°40' W 118°11'1 1.6
2018-Jul-12 22:01N 33°40' W 118°12'1 1.4
2018-Jul-12 21:30N 33°39' W 118°12'1 1.6
2018-Jul-12 21:01N 33°38' W 118°12'3 5.0
2018-Jul-12 20:30N 33°41' W 118°13'0 0.0
2018-Jul-12 20:01N 33°41' W 118°13'0 0.0
2018-Jul-12 19:30N 33°41' W 118°13'0 0.4
2018-Jul-12 19:01N 33°40' W 118°13'4 8.1
2018-Jul-12 18:30N 33°36' W 118°13'1 1.1
2018-Jul-12 18:01N 33°36' W 118°13'0 0.1
2018-Jul-12 17:31N 33°36' W 118°13'0 0.0
2018-Jul-12 17:01N 33°36' W 118°13'0 0.0
2018-Jul-12 16:31N 33°36' W 118°13'0 0.0
2018-Jul-12 16:01N 33°36' W 118°13'2 5.0
2018-Jul-12 15:31N 33°38' W 118°12'0 0.4
2018-Jul-12 15:01N 33°38' W 118°12'2 4.3
2018-Jul-12 14:31N 33°40' W 118°10'4 7.5
2018-Jul-12 14:00N 33°44' W 118°08'2 4.1
2018-Jul-12 13:30N 33°45' W 118°10'1 2.9
2018-Jul-12 13:00N 33°46' W 118°12'0 0.0
2018-Jul-11 23:45N 33°46' W 118°12'1 2.6
2018-Jul-11 23:31N 33°45' W 118°11'3 5.2
2018-Jul-11 23:01N 33°43' W 118°13'3 6.4
2018-Jul-11 22:29N 33°40' W 118°14'0 0.7
2018-Jul-11 22:01N 33°40' W 118°14'1 1.9
2018-Jul-11 21:30N 33°40' W 118°13'1 1.0
2018-Jul-11 21:01N 33°40' W 118°12'1 1.4
2018-Jul-11 20:30N 33°39' W 118°13'1 2.4
2018-Jul-11 20:00N 33°41' W 118°13'0 0.0
2018-Jul-11 19:31N 33°41' W 118°13'1 2.2
2018-Jul-11 19:01N 33°40' W 118°13'1 1.4
2018-Jul-11 18:31N 33°39' W 118°12'2 4.6
2018-Jul-11 18:00N 33°37' W 118°12'1 2.8
2018-Jul-11 17:29N 33°36' W 118°13'0 0.1
2018-Jul-11 17:00N 33°36' W 118°13'0 0.0
2018-Jul-11 16:30N 33°36' W 118°13'0 0.0
2018-Jul-11 16:01N 33°36' W 118°13'0 0.2
2018-Jul-11 15:30N 33°36' W 118°13'3 6.9
2018-Jul-11 15:01N 33°39' W 118°12'0 0.6
2018-Jul-11 14:31N 33°40' W 118°12'4 7.3
2018-Jul-11 14:01N 33°42' W 118°09'2 3.3
2018-Jul-11 13:30N 33°44' W 118°09'3 6.1
2018-Jul-11 13:01N 33°46' W 118°12'0 0.0
2018-Jul-11 00:00N 33°46' W 118°12'3 5.7
2018-Jul-10 23:30N 33°43' W 118°11'4 8.4
2018-Jul-10 23:00N 33°39' W 118°11'1 1.1
2018-Jul-10 22:30N 33°38' W 118°12'0 0.3
2018-Jul-10 22:00N 33°38' W 118°12'2 4.4
2018-Jul-10 21:30N 33°40' W 118°13'0 0.0
2018-Jul-10 21:01N 33°40' W 118°13'1 1.4
2018-Jul-10 20:30N 33°40' W 118°12'2 3.1
2018-Jul-10 20:00N 33°38' W 118°12'0 0.7
2018-Jul-10 19:28N 33°38' W 118°12'3 5.7
2018-Jul-10 19:00N 33°36' W 118°11'0 0.2
2018-Jul-10 18:30N 33°36' W 118°11'1 1.7
2018-Jul-10 18:01N 33°35' W 118°10'0 0.0
2018-Jul-10 17:31N 33°35' W 118°10'2 3.6
2018-Jul-10 17:00N 33°37' W 118°11'3 5.3
2018-Jul-10 16:30N 33°40' W 118°12'0 0.4
2018-Jul-10 16:00N 33°39' W 118°12'1 2.6
2018-Jul-10 15:30N 33°38' W 118°12'4 8.9
2018-Jul-10 15:00N 33°39' W 118°06'1 1.6
2018-Jul-10 14:30N 33°40' W 118°07'3 5.5
2018-Jul-10 14:00N 33°43' W 118°08'2 4.1
2018-Jul-10 13:30N 33°44' W 118°09'3 5.1
2018-Jul-10 13:01N 33°46' W 118°12'0 0.0
2018-Jul-09 23:30N 33°46' W 118°12'2 4.8
2018-Jul-09 23:01N 33°43' W 118°11'4 8.6
2018-Jul-09 22:30N 33°41' W 118°07'1 2.8
2018-Jul-09 22:00N 33°40' W 118°06'0 0.0
2018-Jul-09 21:31N 33°40' W 118°06'3 5.8
2018-Jul-09 21:01N 33°40' W 118°09'2 4.4
2018-Jul-09 20:31N 33°40' W 118°12'0 0.4
2018-Jul-09 20:00N 33°39' W 118°12'1 2.5
2018-Jul-09 19:30N 33°38' W 118°12'1 2.1
2018-Jul-09 18:59N 33°37' W 118°11'3 7.2
2018-Jul-09 18:31N 33°34' W 118°09'0 0.1
2018-Jul-09 18:01N 33°34' W 118°09'0 0.9
2018-Jul-09 17:31N 33°34' W 118°08'0 0.7
2018-Jul-09 17:01N 33°34' W 118°09'3 4.9
2018-Jul-09 16:30N 33°36' W 118°11'3 5.6
2018-Jul-09 16:00N 33°38' W 118°12'1 2.5
2018-Jul-09 15:31N 33°39' W 118°12'0 0.4
2018-Jul-09 15:00N 33°39' W 118°12'0 0.6
2018-Jul-09 14:31N 33°40' W 118°12'4 7.0
2018-Jul-09 14:00N 33°42' W 118°09'1 2.8
2018-Jul-09 13:31N 33°44' W 118°09'3 6.1
2018-Jul-09 13:01N 33°46' W 118°12'0 0.0
2018-Jul-08 23:20N 33°46' W 118°12'1 4.1
2018-Jul-08 23:00N 33°45' W 118°11'3 5.6
2018-Jul-08 22:30N 33°43' W 118°14'2 4.8
2018-Jul-08 22:00N 33°41' W 118°14'0 0.6
2018-Jul-08 21:30N 33°41' W 118°13'0 0.0
2018-Jul-08 21:00N 33°41' W 118°13'0 0.0
2018-Jul-08 20:30N 33°41' W 118°13'0 0.0
2018-Jul-08 20:00N 33°41' W 118°13'2 5.0
2018-Jul-08 19:30N 33°38' W 118°12'4 7.1
2018-Jul-08 19:00N 33°35' W 118°10'0 0.4
2018-Jul-08 18:30N 33°35' W 118°10'0 0.0
2018-Jul-08 18:00N 33°35' W 118°10'0 0.0
2018-Jul-08 17:30N 33°35' W 118°10'2 4.4
2018-Jul-08 17:00N 33°36' W 118°13'0 0.0
2018-Jul-08 16:30N 33°36' W 118°13'0 0.0
2018-Jul-08 16:00N 33°36' W 118°13'0 0.0
2018-Jul-08 15:30N 33°36' W 118°13'0 0.0
2018-Jul-08 15:00N 33°36' W 118°13'0 0.0
2018-Jul-08 14:30N 33°36' W 118°13'4 7.4
2018-Jul-08 14:00N 33°39' W 118°12'4 8.5
2018-Jul-08 13:30N 33°44' W 118°11'2 4.3
2018-Jul-08 13:00N 33°46' W 118°12'0 0.0
2018-Jul-08 00:10N 33°46' W 118°12'0 2.8
2018-Jul-08 00:01N 33°45' W 118°11'2 3.8
2018-Jul-07 23:30N 33°44' W 118°12'3 5.0
2018-Jul-07 23:00N 33°42' W 118°15'2 4.2
2018-Jul-07 22:30N 33°41' W 118°13'0 0.0
2018-Jul-07 22:01N 33°41' W 118°13'0 0.3
2018-Jul-07 21:31N 33°40' W 118°13'5 1.5
2018-Jul-07 18:29N 33°36' W 118°13'1 2.4
2018-Jul-07 18:00N 33°36' W 118°11'0 0.0
2018-Jul-07 17:31N 33°36' W 118°11'0 0.0
2018-Jul-07 17:01N 33°36' W 118°11'0 0.0
2018-Jul-07 16:31N 33°36' W 118°11'0 0.0
2018-Jul-07 16:01N 33°36' W 118°11'0 0.0
2018-Jul-07 15:30N 33°36' W 118°11'1 1.9
2018-Jul-07 15:00N 33°37' W 118°11'4 8.2
2018-Jul-07 14:31N 33°41' W 118°10'3 6.4
2018-Jul-07 14:00N 33°44' W 118°08'2 4.4
2018-Jul-07 13:30N 33°45' W 118°11'1 2.6
2018-Jul-07 13:00N 33°46' W 118°12'0 0.0
2018-Jul-06 22:58N 33°46' W 118°12'3 5.5
2018-Jul-06 22:30N 33°43' W 118°11'4 8.4
2018-Jul-06 22:00N 33°40' W 118°14'0 0.0
2018-Jul-06 21:30N 33°40' W 118°14'0 0.0
2018-Jul-06 21:00N 33°40' W 118°14'0 0.0
2018-Jul-06 20:30N 33°40' W 118°14'0 0.0
2018-Jul-06 19:59N 33°40' W 118°14'0 0.0
2018-Jul-06 19:30N 33°40' W 118°14'2 4.9
2018-Jul-06 19:00N 33°38' W 118°12'3 5.5
2018-Jul-06 18:30N 33°35' W 118°10'0 0.0
2018-Jul-06 18:00N 33°35' W 118°10'0 0.0
2018-Jul-06 17:30N 33°35' W 118°10'0 0.0
2018-Jul-06 17:00N 33°35' W 118°10'1 1.8
2018-Jul-06 16:30N 33°36' W 118°11'0 0.0
2018-Jul-06 16:00N 33°36' W 118°11'0 0.2
2018-Jul-06 15:30N 33°36' W 118°11'0 1.0
2018-Jul-06 15:00N 33°36' W 118°11'4 8.3
2018-Jul-06 14:30N 33°40' W 118°09'4 7.3
2018-Jul-06 14:00N 33°44' W 118°08'1 1.8
2018-Jul-06 13:30N 33°44' W 118°09'  
Track history (hours):
 
Tides and Currents Weather Stations Pressure Air Temp Water Temp Dewpoint Dewpoint Depression Visibility Wind Speed Wind Dir Waves Ship Positions

Enterprise

Owner: SEAL BEACH ANGLERS, INC, LONG BEACH, CA. More information available from US FCC via Universal Licensing System and Coast Guard Vessel Documentation Center.

Last reported at 2018-Jul-15 23:21 UTC. Time now 2018-Jul-16 00:35 UTC.
Position N 33°46' W 118°12'.

Type: Ship. MMSI: 367095040.

Date/timePositionNaut miles runAvg speedWind from/ knotsBaromVisibWave heightAir tempDewpointWater temp
2018-Jul-15 23:21N 33°46' W 118°12'0 0.4
2018-Jul-15 23:00N 33°46' W 118°12'4 7.1
2018-Jul-15 22:30N 33°42' W 118°11'3 5.7
2018-Jul-15 22:00N 33°39' W 118°12'1 2.9
2018-Jul-15 21:30N 33°40' W 118°14'0 0.1
2018-Jul-15 21:01N 33°40' W 118°14'0 0.0
2018-Jul-15 20:31N 33°40' W 118°14'1 1.9
2018-Jul-15 20:01N 33°41' W 118°13'0 0.0
2018-Jul-15 19:30N 33°41' W 118°13'1 2.3
2018-Jul-15 19:00N 33°40' W 118°13'1 1.2
2018-Jul-15 18:31N 33°39' W 118°12'4 7.2
2018-Jul-15 18:00N 33°36' W 118°11'0 0.0
2018-Jul-15 17:31N 33°36' W 118°11'0 0.0
2018-Jul-15 17:00N 33°36' W 118°11'0 0.0
2018-Jul-15 16:30N 33°36' W 118°11'0 0.0
2018-Jul-15 16:01N 33°36' W 118°11'0 0.0
2018-Jul-15 15:30N 33°36' W 118°11'0 0.0
2018-Jul-15 15:01N 33°36' W 118°11'3 6.6
2018-Jul-15 14:30N 33°39' W 118°10'4 8.8
2018-Jul-15 14:00N 33°43' W 118°08'2 3.4
2018-Jul-15 13:31N 33°44' W 118°10'2 4.5
2018-Jul-15 13:00N 33°46' W 118°12'0 0.0
2018-Jul-14 23:32N 33°46' W 118°12'0 0.0
2018-Jul-14 23:30N 33°46' W 118°12'0 0.0
2018-Jul-14 23:00N 33°46' W 118°12'3 5.3
2018-Jul-14 22:30N 33°43' W 118°11'4 8.2
2018-Jul-14 22:00N 33°39' W 118°12'2 3.1
2018-Jul-14 21:30N 33°40' W 118°14'0 0.0
2018-Jul-14 21:00N 33°40' W 118°14'0 0.0
2018-Jul-14 20:30N 33°40' W 118°14'0 0.0
2018-Jul-14 20:00N 33°40' W 118°14'0 0.0
2018-Jul-14 19:30N 33°40' W 118°14'3 5.6
2018-Jul-14 18:59N 33°37' W 118°13'1 2.2
2018-Jul-14 18:30N 33°36' W 118°13'1 0.5
2018-Jul-14 16:23N 33°36' W 118°11'0 0.0
2018-Jul-14 16:00N 33°36' W 118°11'0 0.0
2018-Jul-14 15:30N 33°36' W 118°11'0 0.0
2018-Jul-14 15:00N 33°36' W 118°11'3 5.0
2018-Jul-14 14:30N 33°38' W 118°12'6 5.6
2018-Jul-14 13:30N 33°44' W 118°11'2 4.6
2018-Jul-14 13:00N 33°46' W 118°12'0 0.0
2018-Jul-13 22:37N 33°46' W 118°12'0 2.2
2018-Jul-13 22:30N 33°46' W 118°12'3 6.0
2018-Jul-13 22:00N 33°43' W 118°11'3 6.5
2018-Jul-13 21:30N 33°40' W 118°13'1 1.2
2018-Jul-13 21:00N 33°40' W 118°14'0 0.0
2018-Jul-13 20:30N 33°40' W 118°14'0 0.0
2018-Jul-13 20:00N 33°40' W 118°14'0 0.0
2018-Jul-13 19:30N 33°40' W 118°14'0 0.0
2018-Jul-13 18:58N 33°40' W 118°14'0 0.0
2018-Jul-13 18:31N 33°40' W 118°14'2 4.1
2018-Jul-13 18:00N 33°38' W 118°13'2 3.9
2018-Jul-13 17:30N 33°36' W 118°13'0 0.0
2018-Jul-13 17:01N 33°36' W 118°13'0 0.0
2018-Jul-13 16:31N 33°36' W 118°13'0 0.0
2018-Jul-13 16:01N 33°36' W 118°13'0 0.0
2018-Jul-13 15:30N 33°36' W 118°13'2 3.4
2018-Jul-13 15:00N 33°37' W 118°12'5 5.2
2018-Jul-13 13:59N 33°43' W 118°12'1 1.5
2018-Jul-13 13:30N 33°43' W 118°11'2 0.2
2018-Jul-12 23:26N 33°46' W 118°12'2 4.7
2018-Jul-12 23:01N 33°44' W 118°11'4 7.4
2018-Jul-12 22:31N 33°40' W 118°11'1 1.6
2018-Jul-12 22:01N 33°40' W 118°12'1 1.4
2018-Jul-12 21:30N 33°39' W 118°12'1 1.6
2018-Jul-12 21:01N 33°38' W 118°12'3 5.0
2018-Jul-12 20:30N 33°41' W 118°13'0 0.0
2018-Jul-12 20:01N 33°41' W 118°13'0 0.0
2018-Jul-12 19:30N 33°41' W 118°13'0 0.4
2018-Jul-12 19:01N 33°40' W 118°13'4 8.1
2018-Jul-12 18:30N 33°36' W 118°13'1 1.1
2018-Jul-12 18:01N 33°36' W 118°13'0 0.1
2018-Jul-12 17:31N 33°36' W 118°13'0 0.0
2018-Jul-12 17:01N 33°36' W 118°13'0 0.0
2018-Jul-12 16:31N 33°36' W 118°13'0 0.0
2018-Jul-12 16:01N 33°36' W 118°13'2 5.0
2018-Jul-12 15:31N 33°38' W 118°12'0 0.4
2018-Jul-12 15:01N 33°38' W 118°12'2 4.3
2018-Jul-12 14:31N 33°40' W 118°10'4 7.5
2018-Jul-12 14:00N 33°44' W 118°08'2 4.1
2018-Jul-12 13:30N 33°45' W 118°10'1 2.9
2018-Jul-12 13:00N 33°46' W 118°12'0 0.0
2018-Jul-11 23:45N 33°46' W 118°12'1 2.6
2018-Jul-11 23:31N 33°45' W 118°11'3 5.2
2018-Jul-11 23:01N 33°43' W 118°13'3 6.4
2018-Jul-11 22:29N 33°40' W 118°14'0 0.7
2018-Jul-11 22:01N 33°40' W 118°14'1 1.9
2018-Jul-11 21:30N 33°40' W 118°13'1 1.0
2018-Jul-11 21:01N 33°40' W 118°12'1 1.4
2018-Jul-11 20:30N 33°39' W 118°13'1 2.4
2018-Jul-11 20:00N 33°41' W 118°13'0 0.0
2018-Jul-11 19:31N 33°41' W 118°13'1 2.2
2018-Jul-11 19:01N 33°40' W 118°13'1 1.4
2018-Jul-11 18:31N 33°39' W 118°12'2 4.6
2018-Jul-11 18:00N 33°37' W 118°12'1 2.8
2018-Jul-11 17:29N 33°36' W 118°13'0 0.1
2018-Jul-11 17:00N 33°36' W 118°13'0 0.0
2018-Jul-11 16:30N 33°36' W 118°13'0 0.0
2018-Jul-11 16:01N 33°36' W 118°13'0 0.2
2018-Jul-11 15:30N 33°36' W 118°13'3 6.9
2018-Jul-11 15:01N 33°39' W 118°12'0 0.6
2018-Jul-11 14:31N 33°40' W 118°12'4 7.3
2018-Jul-11 14:01N 33°42' W 118°09'2 3.3
2018-Jul-11 13:30N 33°44' W 118°09'3 6.1
2018-Jul-11 13:01N 33°46' W 118°12'0 0.0
2018-Jul-11 00:00N 33°46' W 118°12'3 5.7
2018-Jul-10 23:30N 33°43' W 118°11'4 8.4
2018-Jul-10 23:00N 33°39' W 118°11'1 1.1
2018-Jul-10 22:30N 33°38' W 118°12'0 0.3
2018-Jul-10 22:00N 33°38' W 118°12'2 4.4
2018-Jul-10 21:30N 33°40' W 118°13'0 0.0
2018-Jul-10 21:01N 33°40' W 118°13'1 1.4
2018-Jul-10 20:30N 33°40' W 118°12'2 3.1
2018-Jul-10 20:00N 33°38' W 118°12'0 0.7
2018-Jul-10 19:28N 33°38' W 118°12'3 5.7
2018-Jul-10 19:00N 33°36' W 118°11'0 0.2
2018-Jul-10 18:30N 33°36' W 118°11'1 1.7
2018-Jul-10 18:01N 33°35' W 118°10'0 0.0
2018-Jul-10 17:31N 33°35' W 118°10'2 3.6
2018-Jul-10 17:00N 33°37' W 118°11'3 5.3
2018-Jul-10 16:30N 33°40' W 118°12'0 0.4
2018-Jul-10 16:00N 33°39' W 118°12'1 2.6
2018-Jul-10 15:30N 33°38' W 118°12'4 8.9
2018-Jul-10 15:00N 33°39' W 118°06'1 1.6
2018-Jul-10 14:30N 33°40' W 118°07'3 5.5
2018-Jul-10 14:00N 33°43' W 118°08'2 4.1
2018-Jul-10 13:30N 33°44' W 118°09'3 5.1
2018-Jul-10 13:01N 33°46' W 118°12'0 0.0
2018-Jul-09 23:30N 33°46' W 118°12'2 4.8
2018-Jul-09 23:01N 33°43' W 118°11'4 8.6
2018-Jul-09 22:30N 33°41' W 118°07'1 2.8
2018-Jul-09 22:00N 33°40' W 118°06'0 0.0
2018-Jul-09 21:31N 33°40' W 118°06'3 5.8
2018-Jul-09 21:01N 33°40' W 118°09'2 4.4
2018-Jul-09 20:31N 33°40' W 118°12'0 0.4
2018-Jul-09 20:00N 33°39' W 118°12'1 2.5
2018-Jul-09 19:30N 33°38' W 118°12'1 2.1
2018-Jul-09 18:59N 33°37' W 118°11'3 7.2
2018-Jul-09 18:31N 33°34' W 118°09'0 0.1
2018-Jul-09 18:01N 33°34' W 118°09'0 0.9
2018-Jul-09 17:31N 33°34' W 118°08'0 0.7
2018-Jul-09 17:01N 33°34' W 118°09'3 4.9
2018-Jul-09 16:30N 33°36' W 118°11'3 5.6
2018-Jul-09 16:00N 33°38' W 118°12'1 2.5
2018-Jul-09 15:31N 33°39' W 118°12'0 0.4
2018-Jul-09 15:00N 33°39' W 118°12'0 0.6
2018-Jul-09 14:31N 33°40' W 118°12'4 7.0
2018-Jul-09 14:00N 33°42' W 118°09'1 2.8
2018-Jul-09 13:31N 33°44' W 118°09'3 6.1
2018-Jul-09 13:01N 33°46' W 118°12'0 0.0
2018-Jul-08 23:20N 33°46' W 118°12'1 4.1
2018-Jul-08 23:00N 33°45' W 118°11'3 5.6
2018-Jul-08 22:30N 33°43' W 118°14'2 4.8
2018-Jul-08 22:00N 33°41' W 118°14'0 0.6
2018-Jul-08 21:30N 33°41' W 118°13'0 0.0
2018-Jul-08 21:00N 33°41' W 118°13'0 0.0
2018-Jul-08 20:30N 33°41' W 118°13'0 0.0
2018-Jul-08 20:00N 33°41' W 118°13'2 5.0
2018-Jul-08 19:30N 33°38' W 118°12'4 7.1
2018-Jul-08 19:00N 33°35' W 118°10'0 0.4
2018-Jul-08 18:30N 33°35' W 118°10'0 0.0
2018-Jul-08 18:00N 33°35' W 118°10'0 0.0
2018-Jul-08 17:30N 33°35' W 118°10'2 4.4
2018-Jul-08 17:00N 33°36' W 118°13'0 0.0
2018-Jul-08 16:30N 33°36' W 118°13'0 0.0
2018-Jul-08 16:00N 33°36' W 118°13'0 0.0
2018-Jul-08 15:30N 33°36' W 118°13'0 0.0
2018-Jul-08 15:00N 33°36' W 118°13'0 0.0
2018-Jul-08 14:30N 33°36' W 118°13'4 7.4
2018-Jul-08 14:00N 33°39' W 118°12'4 8.5
2018-Jul-08 13:30N 33°44' W 118°11'2 4.3
2018-Jul-08 13:00N 33°46' W 118°12'0 0.0
2018-Jul-08 00:10N 33°46' W 118°12'0 2.8
2018-Jul-08 00:01N 33°45' W 118°11'2 3.8
2018-Jul-07 23:30N 33°44' W 118°12'3 5.0
2018-Jul-07 23:00N 33°42' W 118°15'2 4.2
2018-Jul-07 22:30N 33°41' W 118°13'0 0.0
2018-Jul-07 22:01N 33°41' W 118°13'0 0.3
2018-Jul-07 21:31N 33°40' W 118°13'5 1.5
2018-Jul-07 18:29N 33°36' W 118°13'1 2.4
2018-Jul-07 18:00N 33°36' W 118°11'0 0.0
2018-Jul-07 17:31N 33°36' W 118°11'0 0.0
2018-Jul-07 17:01N 33°36' W 118°11'0 0.0
2018-Jul-07 16:31N 33°36' W 118°11'0 0.0
2018-Jul-07 16:01N 33°36' W 118°11'0 0.0
2018-Jul-07 15:30N 33°36' W 118°11'1 1.9
2018-Jul-07 15:00N 33°37' W 118°11'4 8.2
2018-Jul-07 14:31N 33°41' W 118°10'3 6.4
2018-Jul-07 14:00N 33°44' W 118°08'2 4.4
2018-Jul-07 13:30N 33°45' W 118°11'1 2.6
2018-Jul-07 13:00N 33°46' W 118°12'0 0.0
2018-Jul-06 22:58N 33°46' W 118°12'3 5.5
2018-Jul-06 22:30N 33°43' W 118°11'4 8.4
2018-Jul-06 22:00N 33°40' W 118°14'0 0.0
2018-Jul-06 21:30N 33°40' W 118°14'0 0.0
2018-Jul-06 21:00N 33°40' W 118°14'0 0.0
2018-Jul-06 20:30N 33°40' W 118°14'0 0.0
2018-Jul-06 19:59N 33°40' W 118°14'0 0.0
2018-Jul-06 19:30N 33°40' W 118°14'2 4.9
2018-Jul-06 19:00N 33°38' W 118°12'3 5.5
2018-Jul-06 18:30N 33°35' W 118°10'0 0.0
2018-Jul-06 18:00N 33°35' W 118°10'0 0.0
2018-Jul-06 17:30N 33°35' W 118°10'0 0.0
2018-Jul-06 17:00N 33°35' W 118°10'1 1.8
2018-Jul-06 16:30N 33°36' W 118°11'0 0.0
2018-Jul-06 16:00N 33°36' W 118°11'0 0.2
2018-Jul-06 15:30N 33°36' W 118°11'0 1.0
2018-Jul-06 15:00N 33°36' W 118°11'4 8.3
2018-Jul-06 14:30N 33°40' W 118°09'4 7.3
2018-Jul-06 14:00N 33°44' W 118°08'1 1.8
2018-Jul-06 13:30N 33°44' W 118°09'  

Dump ship's entire track history